Carnival Dream — 3ETA7 — position and weather

sailwx.info

Track history (hours):
 
Tides and Currents Weather Stations Pressure Air Temp Water Temp Dewpoint Dewpoint Depression Visibility Wind Speed Wind Dir Waves Ship Positions

Carnival Dream

Last reported at 2018-Jun-23 20:00 UTC. Time now 2018-Jun-25 00:40 UTC.
Position N 27°30' W 087°54'.

Length 308 m; draft 8.4 m.

Type: Ship. MMSI: 370490000.

Wind from 270 at 8 knots

Barometer 1015.6 mb
Air temperature 28.0 ° C
Visibility: greater than 10.8 NM
Dewpoint 23.7 ° C
Water temperature 25.0 ° C

Date/timePositionNaut miles runAvg speedWind from/ knotsBaromVisibWave heightAir tempDewpointWater temp
2018-Jun-23 20:00N 27°30' W 087°54'5225.9 270 / 81015.610.8 28.023.725.0
2018-Jun-23 18:00N 26°54' W 087°12'30613.9 240 / 101016.610.8 28.023.725.0
2018-Jun-22 20:00N 24°12' W 082°24'15013.8 330 / 51015.610.8 28.020.529.0
2018-Jun-22 09:09N 25°21' W 079°57'213.4
2018-Jun-22 09:01N 25°23' W 079°56'713.3
2018-Jun-22 08:31N 25°28' W 079°52'713.2
2018-Jun-22 08:00N 25°34' W 079°48'4708.2
2018-Jun-22 08:00N 25°30' W 079°48'1020.9 300 / 191014.3 28.023.724.0
2018-Jun-22 07:30N 25°40' W 079°44'815.5
2018-Jun-22 07:00N 25°46' W 079°40'4975.7
2018-Jun-22 07:00N 25°48' W 079°36'611.5 310 / 151014.7 27.024.125.0
2018-Jun-22 06:30N 25°53' W 079°35'17 0.4
2018-Jun-20 09:45N 26°07' W 079°24'717.2
2018-Jun-20 09:21N 26°02' W 079°30'617.8
2018-Jun-20 09:00N 25°56' W 079°31'918.5
2018-Jun-20 08:31N 25°47' W 079°34'1018.9
2018-Jun-20 08:00N 25°38' W 079°36'1019.0
2018-Jun-20 07:30N 25°28' W 079°37'49310.8
2018-Jun-18 10:00N 27°54' W 088°24'2813.9 160 / 171017.4 28.023.729.0
2018-Jun-18 08:00N 28°12' W 088°48'   160 / 191017.4 27.024.125.0
2018-Jun-15 23:44N 20°36' W 086°56'520.6
2018-Jun-15 23:30N 20°32' W 086°58'3 5.3
2018-Jun-15 22:59N 20°29' W 086°59'0 0.0
2018-Jun-15 22:29N 20°29' W 086°59'0 0.0
2018-Jun-15 21:59N 20°29' W 086°59'0 0.0
2018-Jun-15 21:29N 20°29' W 086°59'0 0.0
2018-Jun-15 20:59N 20°29' W 086°59'0 0.0
2018-Jun-15 20:29N 20°29' W 086°59'0 0.0
2018-Jun-15 19:59N 20°29' W 086°59'0 0.0
2018-Jun-15 19:29N 20°29' W 086°59'0 0.0
2018-Jun-15 18:59N 20°29' W 086°59'0 0.0
2018-Jun-15 18:29N 20°29' W 086°59'0 0.0
2018-Jun-15 17:56N 20°29' W 086°59'0 0.0
2018-Jun-15 17:29N 20°29' W 086°59'0 0.0
2018-Jun-15 16:59N 20°29' W 086°59'0 0.0
2018-Jun-15 16:29N 20°29' W 086°59'0 0.0
2018-Jun-15 15:59N 20°29' W 086°59'0 0.0
2018-Jun-15 15:29N 20°29' W 086°59'0 0.0
2018-Jun-15 14:59N 20°29' W 086°59'0 0.0
2018-Jun-15 14:30N 20°29' W 086°59'1 2.7
2018-Jun-15 14:01N 20°30' W 086°59'5 9.3
2018-Jun-15 13:30N 20°34' W 086°57'714.6
2018-Jun-15 13:00N 20°40' W 086°52'37312.9
2018-Jun-14 08:00N 19°00' W 080°30'   070 / 111015.0 27.025.625.0
Track history (hours):
 
Tides and Currents Weather Stations Pressure Air Temp Water Temp Dewpoint Dewpoint Depression Visibility Wind Speed Wind Dir Waves Ship Positions

Carnival Dream

Last reported at 2018-Jun-23 20:00 UTC. Time now 2018-Jun-25 00:40 UTC.
Position N 27°30' W 087°54'.

Length 308 m; draft 8.4 m.

Type: Ship. MMSI: 370490000.

Wind from 270 at 8 knots

Barometer 1015.6 mb
Air temperature 28.0 ° C
Visibility: greater than 10.8 NM
Dewpoint 23.7 ° C
Water temperature 25.0 ° C

Date/timePositionNaut miles runAvg speedWind from/ knotsBaromVisibWave heightAir tempDewpointWater temp
2018-Jun-23 20:00N 27°30' W 087°54'5225.9 270 / 81015.610.8 28.023.725.0
2018-Jun-23 18:00N 26°54' W 087°12'30613.9 240 / 101016.610.8 28.023.725.0
2018-Jun-22 20:00N 24°12' W 082°24'15013.8 330 / 51015.610.8 28.020.529.0
2018-Jun-22 09:09N 25°21' W 079°57'213.4
2018-Jun-22 09:01N 25°23' W 079°56'713.3
2018-Jun-22 08:31N 25°28' W 079°52'713.2
2018-Jun-22 08:00N 25°34' W 079°48'4708.2
2018-Jun-22 08:00N 25°30' W 079°48'1020.9 300 / 191014.3 28.023.724.0
2018-Jun-22 07:30N 25°40' W 079°44'815.5
2018-Jun-22 07:00N 25°46' W 079°40'4975.7
2018-Jun-22 07:00N 25°48' W 079°36'611.5 310 / 151014.7 27.024.125.0
2018-Jun-22 06:30N 25°53' W 079°35'17 0.4
2018-Jun-20 09:45N 26°07' W 079°24'717.2
2018-Jun-20 09:21N 26°02' W 079°30'617.8
2018-Jun-20 09:00N 25°56' W 079°31'918.5
2018-Jun-20 08:31N 25°47' W 079°34'1018.9
2018-Jun-20 08:00N 25°38' W 079°36'1019.0
2018-Jun-20 07:30N 25°28' W 079°37'49310.8
2018-Jun-18 10:00N 27°54' W 088°24'2813.9 160 / 171017.4 28.023.729.0
2018-Jun-18 08:00N 28°12' W 088°48'   160 / 191017.4 27.024.125.0
2018-Jun-15 23:44N 20°36' W 086°56'520.6
2018-Jun-15 23:30N 20°32' W 086°58'3 5.3
2018-Jun-15 22:59N 20°29' W 086°59'0 0.0
2018-Jun-15 22:29N 20°29' W 086°59'0 0.0
2018-Jun-15 21:59N 20°29' W 086°59'0 0.0
2018-Jun-15 21:29N 20°29' W 086°59'0 0.0
2018-Jun-15 20:59N 20°29' W 086°59'0 0.0
2018-Jun-15 20:29N 20°29' W 086°59'0 0.0
2018-Jun-15 19:59N 20°29' W 086°59'0 0.0
2018-Jun-15 19:29N 20°29' W 086°59'0 0.0
2018-Jun-15 18:59N 20°29' W 086°59'0 0.0
2018-Jun-15 18:29N 20°29' W 086°59'0 0.0
2018-Jun-15 17:56N 20°29' W 086°59'0 0.0
2018-Jun-15 17:29N 20°29' W 086°59'0 0.0
2018-Jun-15 16:59N 20°29' W 086°59'0 0.0
2018-Jun-15 16:29N 20°29' W 086°59'0 0.0
2018-Jun-15 15:59N 20°29' W 086°59'0 0.0
2018-Jun-15 15:29N 20°29' W 086°59'0 0.0
2018-Jun-15 14:59N 20°29' W 086°59'0 0.0
2018-Jun-15 14:30N 20°29' W 086°59'1 2.7
2018-Jun-15 14:01N 20°30' W 086°59'5 9.3
2018-Jun-15 13:30N 20°34' W 086°57'714.6
2018-Jun-15 13:00N 20°40' W 086°52'37312.9
2018-Jun-14 08:00N 19°00' W 080°30'   070 / 111015.0 27.025.625.0

Dump ship's entire track history